createdAt,value
2022-12-04T00:01:30.000Z,53.60
2022-12-04T00:04:00.938Z,55.30
2022-12-04T00:06:29.604Z,53.30
2022-12-04T00:08:57.656Z,52.90
2022-12-04T00:11:29.968Z,52.47
2022-12-04T00:14:04.566Z,50.83
2022-12-04T00:16:34.631Z,50.47
2022-12-04T00:19:02.141Z,50.37
2022-12-04T00:21:29.602Z,52.17
2022-12-04T00:23:57.011Z,52.67
2022-12-04T00:26:27.870Z,50.13
2022-12-04T00:28:56.168Z,51.17
2022-12-04T00:31:27.328Z,48.67
2022-12-04T00:33:55.010Z,48.60
2022-12-04T00:36:25.749Z,54.03
2022-12-04T00:38:54.251Z,49.17
2022-12-04T00:41:25.247Z,53.63
2022-12-04T00:43:53.478Z,51.53
2022-12-04T00:46:21.477Z,51.57
2022-12-04T00:48:49.122Z,51.30
2022-12-04T00:51:23.354Z,49.47
2022-12-04T00:53:52.502Z,51.00
2022-12-04T00:56:25.033Z,51.77
2022-12-04T00:58:59.379Z,48.10
2022-12-04T01:01:28.525Z,50.63
2022-12-04T01:03:57.020Z,52.87
2022-12-04T01:06:31.580Z,52.70
2022-12-04T01:09:00.647Z,49.17
2022-12-04T01:11:30.342Z,51.30
2022-12-04T01:13:58.510Z,48.27
2022-12-04T01:16:38.308Z,48.80
2022-12-04T01:19:09.508Z,47.53
2022-12-04T01:21:38.083Z,46.30
2022-12-04T01:24:05.999Z,50.80
2022-12-04T01:26:33.778Z,49.67
2022-12-04T01:29:01.967Z,48.00
2022-12-04T01:31:29.499Z,47.77
2022-12-04T01:33:57.010Z,51.27
2022-12-04T01:36:27.969Z,47.77
2022-12-04T01:38:55.961Z,48.57
2022-12-04T01:41:27.267Z,45.80
2022-12-04T01:44:26.829Z,50.77
2022-12-04T01:46:59.994Z,49.67
2022-12-04T01:49:46.478Z,46.43
2022-12-04T01:52:20.140Z,50.40
2022-12-04T01:54:52.527Z,48.67
2022-12-04T01:57:23.758Z,44.60
2022-12-04T01:59:58.346Z,46.90
2022-12-04T02:02:36.159Z,44.97
2022-12-04T02:05:06.979Z,47.63
2022-12-04T02:07:35.288Z,45.80
2022-12-04T02:10:06.565Z,47.43
2022-12-04T02:12:56.208Z,47.53
2022-12-04T02:15:46.621Z,47.53
2022-12-04T02:18:45.604Z,47.63
2022-12-04T02:21:37.155Z,49.67
2022-12-04T02:24:35.091Z,49.13
2022-12-04T02:27:39.259Z,47.10
2022-12-04T02:30:11.238Z,48.63
2022-12-04T02:33:02.352Z,49.83
2022-12-04T02:36:03.436Z,49.10
2022-12-04T02:38:43.150Z,51.43
2022-12-04T02:41:18.926Z,54.43
2022-12-04T02:43:51.792Z,50.13
2022-12-04T02:46:21.102Z,51.73
2022-12-04T02:48:52.458Z,49.20
2022-12-04T02:51:24.211Z,48.33
2022-12-04T02:53:58.379Z,46.17
2022-12-04T02:56:38.128Z,47.13
2022-12-04T02:59:13.072Z,48.97
2022-12-04T03:01:44.206Z,47.80
2022-12-04T03:04:18.304Z,45.83
2022-12-04T03:06:51.486Z,45.17
2022-12-04T03:09:29.542Z,47.47
2022-12-04T03:12:51.010Z,44.70
2022-12-04T03:15:27.896Z,45.87
2022-12-04T03:18:15.842Z,48.00
2022-12-04T03:20:45.043Z,48.87
2022-12-04T03:23:21.320Z,50.00
2022-12-04T03:26:23.076Z,46.73
2022-12-04T03:29:07.014Z,43.37
2022-12-04T03:31:47.411Z,44.27
2022-12-04T03:34:26.842Z,47.20
2022-12-04T03:37:04.593Z,42.13
2022-12-04T03:40:18.631Z,45.50
2022-12-04T03:43:03.122Z,45.73
2022-12-04T03:46:03.840Z,46.67
2022-12-04T03:49:13.475Z,44.93
2022-12-04T03:52:00.909Z,46.53
2022-12-04T03:54:38.131Z,43.73
2022-12-04T03:57:19.049Z,46.33
2022-12-04T04:00:06.735Z,47.10
2022-12-04T04:02:43.848Z,46.83
2022-12-04T04:05:13.600Z,44.33
2022-12-04T04:07:53.686Z,48.47
2022-12-04T04:10:25.644Z,47.33
2022-12-04T04:13:21.458Z,44.40
2022-12-04T04:16:13.576Z,48.83
2022-12-04T04:19:01.921Z,45.40
2022-12-04T04:21:52.894Z,42.70
2022-12-04T04:24:55.718Z,47.47
2022-12-04T04:27:23.192Z,46.53
2022-12-04T04:29:53.005Z,47.00
2022-12-04T04:33:09.842Z,45.07
2022-12-04T04:35:58.213Z,45.63
2022-12-04T04:38:38.290Z,44.33
2022-12-04T04:41:10.845Z,44.13
2022-12-04T04:43:57.723Z,46.73
2022-12-04T04:46:35.608Z,46.90
2022-12-04T04:49:07.802Z,46.90
2022-12-04T04:51:36.541Z,52.33
2022-12-04T04:54:12.339Z,49.17
2022-12-04T04:56:45.998Z,55.13
2022-12-04T04:59:14.519Z,48.60
2022-12-04T05:01:46.189Z,49.83
2022-12-04T05:04:14.497Z,76.73
2022-12-04T05:06:41.972Z,70.03
2022-12-04T05:09:09.375Z,44.57
2022-12-04T05:11:36.896Z,48.67
2022-12-04T05:14:06.128Z,48.80
2022-12-04T05:16:33.649Z,57.00
2022-12-04T05:19:19.808Z,65.23
2022-12-04T05:21:47.278Z,53.80
2022-12-04T05:24:14.708Z,50.67
2022-12-04T05:26:42.153Z,43.40
2022-12-04T05:29:09.515Z,41.17
2022-12-04T05:31:37.035Z,39.87
2022-12-04T05:34:04.538Z,39.43
2022-12-04T05:36:31.943Z,40.57
2022-12-04T05:38:59.366Z,38.63
2022-12-04T05:41:26.741Z,43.53
2022-12-04T05:43:54.226Z,42.73
2022-12-04T05:46:21.801Z,43.97
2022-12-04T05:48:49.235Z,47.63
2022-12-04T05:51:17.370Z,45.80
2022-12-04T05:53:44.897Z,43.67
2022-12-04T05:56:12.518Z,46.73
2022-12-04T05:58:40.019Z,41.43
2022-12-04T06:01:14.685Z,41.53
2022-12-04T06:03:42.144Z,49.10
2022-12-04T06:06:22.446Z,52.73
2022-12-04T06:08:56.702Z,58.23
2022-12-04T06:11:34.256Z,49.53
2022-12-04T06:14:05.099Z,43.63
2022-12-04T06:16:38.624Z,40.77
2022-12-04T06:19:11.952Z,41.27
2022-12-04T06:21:41.759Z,41.60
2022-12-04T06:24:14.113Z,42.73
2022-12-04T06:27:04.109Z,43.53
2022-12-04T06:29:29.657Z,38.93
2022-12-04T06:31:57.267Z,40.20
2022-12-04T06:34:24.752Z,45.03
2022-12-04T06:36:52.152Z,39.97
2022-12-04T06:39:19.596Z,40.07
2022-12-04T06:41:47.760Z,42.97
2022-12-04T06:44:18.440Z,46.37
2022-12-04T06:46:47.308Z,50.10
2022-12-04T06:49:15.448Z,46.70
2022-12-04T06:51:42.888Z,43.07
2022-12-04T06:54:11.149Z,41.60
2022-12-04T06:56:38.584Z,45.53
2022-12-04T06:59:06.072Z,40.67
2022-12-04T07:01:35.737Z,41.63
2022-12-04T07:04:04.495Z,39.03
2022-12-04T07:06:39.725Z,40.10
2022-12-04T07:09:12.604Z,40.47
2022-12-04T07:11:42.302Z,39.77
2022-12-04T07:14:10.592Z,38.87
2022-12-04T07:16:41.980Z,40.67
2022-12-04T07:19:12.894Z,37.57
2022-12-04T07:21:41.537Z,43.13
2022-12-04T07:24:14.274Z,43.87
2022-12-04T07:26:41.836Z,42.93
2022-12-04T07:29:10.853Z,43.50
2022-12-04T07:31:38.972Z,41.70
2022-12-04T07:34:06.800Z,37.97
2022-12-04T07:36:34.294Z,40.43
2022-12-04T07:39:01.763Z,45.60
2022-12-04T07:41:29.308Z,43.67
2022-12-04T07:43:56.937Z,46.47
2022-12-04T07:46:27.753Z,45.00
2022-12-04T07:48:57.425Z,45.93
2022-12-04T07:51:28.204Z,44.57
2022-12-04T07:54:02.771Z,39.50
2022-12-04T07:56:32.118Z,45.03
2022-12-04T07:59:00.476Z,37.37
2022-12-04T08:01:28.346Z,40.43
2022-12-04T08:03:58.570Z,38.43
2022-12-04T08:06:28.287Z,41.30
2022-12-04T08:08:57.506Z,43.00
2022-12-04T08:11:27.912Z,40.90
2022-12-04T08:14:01.796Z,37.57
2022-12-04T08:16:32.229Z,40.20
2022-12-04T08:19:00.828Z,43.10
2022-12-04T08:21:30.902Z,42.63
2022-12-04T08:24:00.409Z,38.93
2022-12-04T08:26:31.022Z,40.83
2022-12-04T08:28:59.491Z,44.73
2022-12-04T08:31:29.826Z,42.20
2022-12-04T08:33:58.855Z,38.67
2022-12-04T08:36:27.159Z,43.07
2022-12-04T08:38:55.384Z,43.83
2022-12-04T08:41:24.967Z,39.83
2022-12-04T08:43:58.115Z,37.93
2022-12-04T08:46:27.695Z,38.00
2022-12-04T08:48:55.911Z,39.57
2022-12-04T08:51:28.018Z,35.43
2022-12-04T08:54:01.437Z,34.87
2022-12-04T08:56:30.793Z,39.70
2022-12-04T08:58:59.583Z,77.20
2022-12-04T09:01:28.583Z,35.63
2022-12-04T09:03:56.661Z,40.30
2022-12-04T09:06:24.811Z,38.53
2022-12-04T09:08:55.040Z,38.77
2022-12-04T09:11:26.342Z,40.10
2022-12-04T09:13:56.087Z,52.97
2022-12-04T09:16:25.811Z,33.90
2022-12-04T09:18:53.978Z,32.77
2022-12-04T09:21:23.402Z,30.23
2022-12-04T09:23:51.587Z,35.57
2022-12-04T09:26:29.938Z,37.80
2022-12-04T09:29:00.652Z,34.97
2022-12-04T09:31:28.661Z,35.43
2022-12-04T09:33:58.842Z,35.53
2022-12-04T09:36:26.584Z,35.30
2022-12-04T09:38:55.194Z,34.70
2022-12-04T09:41:40.548Z,31.40
2022-12-04T09:44:35.088Z,32.33
2022-12-04T09:47:25.633Z,36.03
2022-12-04T09:50:02.094Z,32.60
2022-12-04T09:52:47.422Z,30.17
2022-12-04T09:55:54.193Z,31.13
2022-12-04T09:58:53.925Z,33.40
2022-12-04T10:01:41.828Z,32.37
2022-12-04T10:04:11.838Z,30.40
2022-12-04T10:07:04.633Z,28.90
2022-12-04T10:10:01.299Z,29.03
2022-12-04T10:12:49.151Z,29.27
2022-12-04T10:15:58.506Z,27.57
2022-12-04T10:18:47.867Z,32.73
2022-12-04T10:21:30.344Z,31.40
2022-12-04T10:25:01.760Z,25.50
2022-12-04T10:27:58.146Z,26.47
2022-12-04T10:30:33.367Z,31.70
2022-12-04T10:33:18.724Z,30.13
2022-12-04T10:35:52.573Z,28.00
2022-12-04T10:38:46.532Z,25.80
2022-12-04T10:41:48.565Z,30.50
2022-12-04T10:44:19.191Z,27.03
2022-12-04T10:46:47.459Z,22.83
2022-12-04T10:49:20.922Z,30.17
2022-12-04T10:51:48.813Z,28.60
2022-12-04T10:54:35.641Z,29.73
2022-12-04T10:57:07.866Z,31.50
2022-12-04T11:00:24.168Z,34.20
2022-12-04T11:02:54.077Z,27.53
2022-12-04T11:05:32.758Z,27.87
2022-12-04T11:08:04.280Z,27.73
2022-12-04T11:10:36.186Z,28.40
2022-12-04T11:13:18.908Z,29.27
2022-12-04T11:15:50.525Z,30.63
2022-12-04T11:18:24.056Z,28.33
2022-12-04T11:20:55.129Z,30.00
2022-12-04T11:23:23.518Z,28.90
2022-12-04T11:25:59.337Z,26.60
2022-12-04T11:28:47.616Z,28.13
2022-12-04T11:31:22.922Z,27.27
2022-12-04T11:33:59.017Z,30.40
2022-12-04T11:36:43.351Z,26.80
2022-12-04T11:39:14.023Z,26.43
2022-12-04T11:41:41.925Z,27.87
2022-12-04T11:44:32.326Z,28.77
2022-12-04T11:47:04.356Z,27.83
2022-12-04T11:49:33.438Z,28.43
2022-12-04T11:52:09.610Z,38.33
2022-12-04T11:55:04.548Z,50.80
2022-12-04T11:57:57.530Z,35.30
2022-12-04T12:00:26.921Z,41.43
2022-12-04T12:03:39.579Z,31.97
2022-12-04T12:07:04.080Z,35.80
2022-12-04T12:09:50.088Z,30.53
2022-12-04T12:13:04.321Z,31.37
2022-12-04T12:16:09.084Z,26.37
2022-12-04T12:18:54.484Z,31.67
2022-12-04T12:21:29.312Z,33.60
2022-12-04T12:24:27.692Z,32.10
2022-12-04T12:27:22.687Z,30.63
2022-12-04T12:30:04.623Z,39.57
2022-12-04T12:33:03.059Z,32.17
2022-12-04T12:35:50.500Z,34.30
2022-12-04T12:38:33.344Z,42.07
2022-12-04T12:41:37.188Z,36.43
2022-12-04T12:44:26.304Z,37.20
2022-12-04T12:47:17.997Z,42.30
2022-12-04T12:50:13.160Z,31.53
2022-12-04T12:53:10.994Z,35.73
2022-12-04T12:55:55.639Z,31.93
2022-12-04T12:58:35.062Z,26.93
2022-12-04T13:01:35.790Z,25.60
2022-12-04T13:04:25.775Z,31.97
2022-12-04T13:07:38.285Z,30.27
2022-12-04T13:10:32.176Z,31.23
2022-12-04T13:13:28.295Z,32.17
2022-12-04T13:16:14.878Z,26.67
2022-12-04T13:19:01.135Z,29.97
2022-12-04T13:21:58.819Z,34.57
2022-12-04T13:25:04.788Z,39.93
2022-12-04T13:28:17.476Z,33.63
2022-12-04T13:31:13.802Z,31.30
2022-12-04T13:33:58.590Z,27.40
2022-12-04T13:36:38.145Z,32.47
2022-12-04T13:39:27.035Z,29.83
2022-12-04T13:42:24.119Z,30.83
2022-12-04T13:45:10.330Z,31.57
2022-12-04T13:47:37.873Z,32.07
2022-12-04T13:50:20.692Z,32.20
2022-12-04T13:52:49.558Z,36.67
2022-12-04T13:55:36.323Z,45.43
2022-12-04T13:58:30.753Z,45.60
2022-12-04T14:01:31.537Z,48.97
2022-12-04T14:04:00.341Z,33.67
2022-12-04T14:06:50.907Z,33.37
2022-12-04T14:09:38.782Z,35.17
2022-12-04T14:12:12.901Z,33.13
2022-12-04T14:14:55.711Z,33.53
2022-12-04T14:17:36.852Z,36.10
2022-12-04T14:20:28.073Z,45.93
2022-12-04T14:22:55.948Z,41.73
2022-12-04T14:25:35.918Z,44.40
2022-12-04T14:28:31.499Z,62.80
2022-12-04T14:31:26.164Z,44.87
2022-12-04T14:34:14.776Z,42.30
2022-12-04T14:36:46.074Z,40.20
2022-12-04T14:39:31.326Z,37.33
2022-12-04T14:42:12.109Z,39.00
2022-12-04T14:44:40.247Z,34.57
2022-12-04T14:47:32.066Z,38.03
2022-12-04T14:50:30.901Z,65.63
2022-12-04T14:53:21.676Z,33.70
2022-12-04T14:56:07.821Z,33.13
2022-12-04T14:58:39.275Z,31.20
2022-12-04T15:01:28.726Z,34.43
2022-12-04T15:04:01.614Z,46.37
2022-12-04T15:06:32.016Z,33.50
2022-12-04T15:09:21.972Z,33.10
2022-12-04T15:12:14.227Z,32.10
2022-12-04T15:14:44.313Z,33.70
2022-12-04T15:17:13.579Z,32.73
2022-12-04T15:19:41.382Z,36.70
2022-12-04T15:22:18.986Z,45.37
2022-12-04T15:24:46.430Z,47.40
2022-12-04T15:27:15.613Z,53.50
2022-12-04T15:29:48.510Z,51.70
2022-12-04T15:32:20.815Z,41.40
2022-12-04T15:35:05.767Z,49.80
2022-12-04T15:37:33.612Z,58.27
2022-12-04T15:40:07.308Z,56.50
2022-12-04T15:42:34.841Z,49.67
2022-12-04T15:45:23.133Z,45.03
2022-12-04T15:47:54.113Z,53.30
2022-12-04T15:50:27.307Z,51.20
2022-12-04T15:53:15.616Z,52.77
2022-12-04T15:55:56.730Z,44.43
2022-12-04T15:58:31.383Z,48.60
2022-12-04T16:01:12.074Z,40.93
2022-12-04T16:03:42.528Z,43.37
2022-12-04T16:06:20.439Z,40.80
2022-12-04T16:08:54.318Z,46.53
2022-12-04T16:11:24.679Z,43.47
2022-12-04T16:14:12.993Z,38.33
2022-12-04T16:16:45.687Z,44.07
2022-12-04T16:19:36.740Z,41.40
2022-12-04T16:22:13.669Z,42.27
2022-12-04T16:24:41.324Z,40.90
2022-12-04T16:27:20.181Z,41.43
2022-12-04T16:29:47.663Z,42.33
2022-12-04T16:32:21.621Z,43.57
2022-12-04T16:34:49.810Z,41.73
2022-12-04T16:37:20.557Z,37.37
2022-12-04T16:39:48.959Z,39.27
2022-12-04T16:42:28.720Z,42.13
2022-12-04T16:44:56.724Z,39.13
2022-12-04T16:47:24.377Z,36.67
2022-12-04T16:49:53.513Z,39.13
2022-12-04T16:52:21.514Z,38.67
2022-12-04T16:54:49.040Z,42.13
2022-12-04T16:57:16.491Z,37.70
2022-12-04T16:59:43.952Z,37.90
2022-12-04T17:02:24.715Z,37.97
2022-12-04T17:04:57.522Z,36.97
2022-12-04T17:07:25.621Z,38.00
2022-12-04T17:09:53.067Z,35.43
2022-12-04T17:12:20.510Z,39.73
2022-12-04T17:14:47.916Z,39.83
2022-12-04T17:17:15.384Z,42.87
2022-12-04T17:19:42.757Z,39.73
2022-12-04T17:22:10.613Z,38.43
2022-12-04T17:24:43.554Z,40.20
2022-12-04T17:27:15.053Z,36.07
2022-12-04T17:29:42.461Z,40.03
2022-12-04T17:32:09.900Z,39.17
2022-12-04T17:34:37.437Z,39.63
2022-12-04T17:37:06.089Z,42.33
2022-12-04T17:39:33.545Z,47.40
2022-12-04T17:42:00.894Z,38.87
2022-12-04T17:44:28.525Z,45.90
2022-12-04T17:46:56.074Z,46.77
2022-12-04T17:49:23.532Z,53.83
2022-12-04T17:51:50.980Z,45.77
2022-12-04T17:54:18.510Z,61.87
2022-12-04T17:56:50.337Z,61.37
2022-12-04T17:59:19.769Z,56.33
2022-12-04T18:01:49.695Z,47.00
2022-12-04T18:04:19.011Z,48.47
2022-12-04T18:06:46.953Z,52.83
2022-12-04T18:09:18.178Z,49.37
2022-12-04T18:11:48.291Z,50.13
2022-12-04T18:14:19.261Z,47.43
2022-12-04T18:16:54.006Z,46.27
2022-12-04T18:19:24.808Z,46.97
2022-12-04T18:21:52.447Z,55.30
2022-12-04T18:24:20.721Z,42.93
2022-12-04T18:26:49.840Z,44.37
2022-12-04T18:29:25.093Z,41.20
2022-12-04T18:31:53.203Z,43.03
2022-12-04T18:34:21.507Z,43.23
2022-12-04T18:36:49.356Z,42.23
2022-12-04T18:39:23.607Z,40.90
2022-12-04T18:41:52.937Z,42.63
2022-12-04T18:44:20.659Z,51.50
2022-12-04T18:46:48.092Z,58.40
2022-12-04T18:49:15.610Z,68.20
2022-12-04T18:51:50.011Z,78.40
2022-12-04T18:54:22.400Z,83.30
2022-12-04T18:56:50.614Z,70.90
2022-12-04T18:59:24.875Z,75.20
2022-12-04T19:01:53.474Z,60.50
2022-12-04T19:04:23.653Z,55.20
2022-12-04T19:06:55.138Z,58.77
2022-12-04T19:09:54.411Z,63.43
2022-12-04T19:12:16.356Z,68.37
2022-12-04T19:14:43.795Z,56.77
2022-12-04T19:17:11.877Z,68.53
2022-12-04T19:19:39.338Z,70.63
2022-12-04T19:22:06.908Z,90.87
2022-12-04T19:24:34.401Z,92.10
2022-12-04T19:27:10.060Z,78.30
2022-12-04T19:29:42.728Z,52.73
2022-12-04T19:32:11.483Z,56.43
2022-12-04T19:34:39.506Z,56.60
2022-12-04T19:37:07.563Z,55.70
2022-12-04T19:39:35.017Z,64.60
2022-12-04T19:42:02.476Z,57.10
2022-12-04T19:47:18.612Z,47.87
2022-12-04T19:49:46.743Z,51.37
2022-12-04T19:52:14.609Z,50.00
2022-12-04T19:54:42.328Z,52.53
2022-12-04T19:57:10.228Z,56.20
2022-12-04T19:59:41.758Z,53.10
2022-12-04T20:02:12.449Z,49.33
2022-12-04T20:04:40.209Z,55.07
2022-12-04T20:07:07.727Z,48.17
2022-12-04T20:09:35.172Z,43.80
2022-12-04T20:12:03.343Z,41.77
2022-12-04T20:14:30.768Z,42.17
2022-12-04T20:17:00.416Z,43.83
2022-12-04T20:19:27.861Z,48.60
2022-12-04T20:21:59.228Z,43.90
2022-12-04T20:24:27.163Z,47.37
2022-12-04T20:26:54.627Z,48.97
2022-12-04T20:29:22.043Z,43.37
2022-12-04T20:31:49.472Z,46.17
2022-12-04T20:34:19.151Z,45.77
2022-12-04T20:36:48.421Z,49.07
2022-12-04T20:39:18.064Z,52.93
2022-12-04T20:41:46.551Z,55.43
2022-12-04T20:44:18.064Z,43.00
2022-12-04T20:46:45.840Z,49.73
2022-12-04T20:49:22.511Z,44.73
2022-12-04T20:51:52.100Z,44.73
2022-12-04T20:54:22.419Z,44.23
2022-12-04T20:56:53.463Z,40.77
2022-12-04T20:59:23.909Z,40.40
2022-12-04T21:01:52.568Z,42.13
2022-12-04T21:04:20.589Z,40.40
2022-12-04T21:06:48.454Z,39.90
2022-12-04T21:09:20.727Z,40.40
2022-12-04T21:11:52.579Z,41.67
2022-12-04T21:14:45.686Z,45.37
2022-12-04T21:17:18.954Z,43.83
2022-12-04T21:19:50.527Z,42.03
2022-12-04T21:22:19.562Z,38.87
2022-12-04T21:24:47.631Z,40.17
2022-12-04T21:27:20.804Z,44.47
2022-12-04T21:29:49.937Z,40.50
2022-12-04T21:32:19.457Z,39.27
2022-12-04T21:34:46.915Z,38.43
2022-12-04T21:37:14.616Z,39.63
2022-12-04T21:39:43.899Z,40.07
2022-12-04T21:42:29.975Z,39.77
2022-12-04T21:45:01.604Z,40.93
2022-12-04T21:47:29.945Z,42.90
2022-12-04T21:49:57.745Z,40.97
2022-12-04T21:52:25.803Z,43.90
2022-12-04T21:54:54.758Z,44.40
2022-12-04T21:57:22.809Z,40.70
2022-12-04T21:59:52.696Z,44.80
2022-12-04T22:02:20.983Z,43.23
2022-12-04T22:04:48.630Z,45.27
2022-12-04T22:07:16.344Z,46.33
2022-12-04T22:09:43.952Z,41.67
2022-12-04T22:12:26.807Z,44.43
2022-12-04T22:14:58.939Z,44.10
2022-12-04T22:17:30.008Z,48.63
2022-12-04T22:19:57.768Z,46.87
2022-12-04T22:22:25.488Z,44.63
2022-12-04T22:24:52.921Z,44.97
2022-12-04T22:27:20.392Z,44.50
2022-12-04T22:29:51.118Z,44.43
2022-12-04T22:32:20.228Z,41.07
2022-12-04T22:34:50.971Z,44.50
2022-12-04T22:37:18.467Z,41.27
2022-12-04T22:39:45.889Z,41.97
2022-12-04T22:42:13.361Z,42.37
2022-12-04T22:44:41.444Z,43.60
2022-12-04T22:47:09.498Z,44.17
2022-12-04T22:49:37.310Z,43.07
2022-12-04T22:52:05.089Z,42.77
2022-12-04T22:54:32.659Z,44.10
2022-12-04T22:57:00.135Z,40.40
2022-12-04T22:59:27.729Z,41.53
2022-12-04T23:01:55.208Z,43.07
2022-12-04T23:04:22.691Z,47.23
2022-12-04T23:06:50.114Z,49.10
2022-12-04T23:09:19.514Z,47.53
2022-12-04T23:11:52.561Z,48.57
2022-12-04T23:14:24.645Z,47.53
2022-12-04T23:16:53.362Z,44.43
2022-12-04T23:19:22.159Z,45.63
2022-12-04T23:21:56.705Z,47.33
2022-12-04T23:24:25.961Z,43.00
2022-12-04T23:26:53.517Z,43.73
2022-12-04T23:29:51.348Z,44.87
2022-12-04T23:32:08.368Z,45.53
2022-12-04T23:34:35.852Z,46.13
2022-12-04T23:37:03.265Z,43.87
2022-12-04T23:39:30.791Z,44.40
2022-12-04T23:41:58.167Z,43.93
2022-12-04T23:44:25.579Z,44.20
2022-12-04T23:46:53.141Z,41.97
2022-12-04T23:49:20.594Z,42.70
2022-12-04T23:51:48.015Z,48.47
2022-12-04T23:54:15.469Z,47.70
2022-12-04T23:56:42.955Z,45.17
2022-12-04T23:59:10.437Z,43.23
